createdAt,value
2023-02-28T12:03:31.451Z,0.00
2023-02-28T12:03:44.938Z,16.22
2023-02-28T12:03:57.593Z,15.96
2023-02-28T12:04:09.308Z,15.77
2023-02-28T12:04:22.502Z,15.59
2023-02-28T12:04:39.923Z,15.34
2023-02-28T12:04:55.791Z,15.18
2023-02-28T12:05:11.649Z,14.98
2023-02-28T12:05:24.519Z,14.79
2023-02-28T12:05:37.394Z,14.64
2023-02-28T12:05:49.232Z,14.52
2023-02-28T12:06:03.121Z,14.39
2023-02-28T12:06:14.988Z,14.27
2023-02-28T12:06:49.769Z,0.00
2023-02-28T12:07:00.552Z,13.81
2023-02-28T12:07:14.553Z,13.68
2023-02-28T12:07:27.148Z,13.54
2023-02-28T12:07:41.398Z,13.43
2023-02-28T12:07:52.236Z,13.27
2023-02-28T12:08:04.077Z,13.17
2023-02-28T12:08:14.909Z,13.04
2023-02-28T12:08:27.218Z,12.92
2023-02-28T12:08:40.129Z,12.80
2023-02-28T12:08:52.648Z,12.67
2023-02-28T12:09:04.519Z,12.55
2023-02-28T12:09:16.310Z,12.44
2023-02-28T12:09:29.527Z,12.31
2023-02-28T12:10:01.616Z,0.00
2023-02-28T12:10:16.462Z,11.88
2023-02-28T12:10:29.007Z,11.75
2023-02-28T12:10:41.879Z,11.64
2023-02-28T12:10:53.716Z,11.53
2023-02-28T12:11:07.136Z,11.41
2023-02-28T12:11:19.101Z,11.27
2023-02-28T12:11:33.086Z,11.09
2023-02-28T12:11:46.446Z,10.87
2023-02-28T12:11:59.731Z,10.66
2023-02-28T12:12:12.814Z,10.51
2023-02-28T12:12:27.787Z,10.36
2023-02-28T12:12:41.665Z,10.22
2023-02-28T12:12:55.774Z,10.11
2023-02-28T12:13:09.596Z,10.01
2023-02-28T12:13:24.085Z,9.93
2023-02-28T12:13:37.955Z,9.86
2023-02-28T12:13:53.824Z,9.75
2023-02-28T12:14:08.197Z,9.67
2023-02-28T12:14:22.044Z,9.59
2023-02-28T12:14:36.002Z,9.52
2023-02-28T12:14:48.900Z,9.44
2023-02-28T12:15:01.767Z,9.37
2023-02-28T12:15:15.173Z,9.31
2023-02-28T12:15:27.785Z,9.22
2023-02-28T12:15:39.789Z,9.17
2023-02-28T12:15:55.750Z,9.12
2023-02-28T12:16:08.277Z,9.01
2023-02-28T12:16:22.126Z,8.94
2023-02-28T12:17:02.097Z,0.00
2023-02-28T12:17:15.643Z,8.63
2023-02-28T12:17:27.724Z,8.54
2023-02-28T12:17:40.875Z,8.49
2023-02-28T12:17:53.144Z,8.42
2023-02-28T12:18:08.833Z,8.36
2023-02-28T12:18:20.904Z,8.28
2023-02-28T12:18:34.244Z,8.22
2023-02-28T12:18:46.091Z,8.14
2023-02-28T12:18:58.127Z,8.12
2023-02-28T12:19:10.313Z,8.07
2023-02-28T12:19:23.665Z,8.03
2023-02-28T12:19:36.490Z,7.94
2023-02-28T12:19:49.327Z,7.88
2023-02-28T12:20:02.606Z,7.81
2023-02-28T12:20:14.815Z,7.76
2023-02-28T12:20:27.528Z,7.71
2023-02-28T12:20:39.473Z,7.66
2023-02-28T12:20:53.335Z,7.58
2023-02-28T12:21:05.694Z,7.54
2023-02-28T12:21:18.313Z,7.48
2023-02-28T12:21:31.008Z,7.45
2023-02-28T12:21:43.668Z,7.42
2023-02-28T12:21:56.007Z,7.41
2023-02-28T12:22:08.445Z,7.37
2023-02-28T12:22:19.504Z,7.36
2023-02-28T12:22:32.820Z,7.33
2023-02-28T12:22:44.906Z,7.32
2023-02-28T12:22:59.342Z,7.32
2023-02-28T12:23:12.174Z,7.29
2023-02-28T12:23:24.280Z,7.30
2023-02-28T12:23:37.197Z,7.29
2023-02-28T12:23:50.010Z,7.32
2023-02-28T12:24:03.999Z,7.30
2023-02-28T12:24:16.725Z,7.30
2023-02-28T12:24:30.594Z,7.32
2023-02-28T12:24:43.759Z,7.32
2023-02-28T12:24:56.933Z,7.34
2023-02-28T12:25:08.895Z,7.34
2023-02-28T12:25:22.071Z,7.34
2023-02-28T12:25:39.587Z,7.37
2023-02-28T12:25:52.436Z,7.41
2023-02-28T12:26:06.429Z,7.42
2023-02-28T12:26:18.358Z,7.44
2023-02-28T12:26:32.237Z,7.44
2023-02-28T12:26:45.104Z,7.47
2023-02-28T12:26:57.088Z,7.47
2023-02-28T12:27:10.672Z,7.48
2023-02-28T12:27:25.832Z,7.50
2023-02-28T12:27:37.687Z,7.50
2023-02-28T12:28:02.862Z,7.50
2023-02-28T12:28:15.356Z,7.48
2023-02-28T12:28:27.430Z,7.50
2023-02-28T12:28:41.067Z,7.48
2023-02-28T12:28:54.019Z,7.48
2023-02-28T12:29:05.125Z,7.47
2023-02-28T12:29:18.826Z,7.47
2023-02-28T12:29:34.765Z,7.45
2023-02-28T12:29:54.298Z,7.44
2023-02-28T12:30:07.430Z,7.41
2023-02-28T12:30:23.947Z,7.39
2023-02-28T12:30:42.415Z,7.36
2023-02-28T12:30:55.857Z,7.33
2023-02-28T12:31:10.533Z,7.30
2023-02-28T12:31:22.971Z,7.32
2023-02-28T12:31:36.441Z,7.29
2023-02-28T12:31:49.932Z,7.30
2023-02-28T12:32:02.664Z,7.29
2023-02-28T12:32:13.791Z,7.30
2023-02-28T12:32:55.649Z,0.00
2023-02-28T12:33:07.548Z,7.29
2023-02-28T12:33:19.690Z,7.30
2023-02-28T12:33:31.515Z,7.32
2023-02-28T12:33:43.425Z,7.33
2023-02-28T12:33:55.522Z,7.33
2023-02-28T12:34:08.649Z,7.34
2023-02-28T12:34:21.299Z,7.36
2023-02-28T12:34:33.058Z,7.39
2023-02-28T12:34:45.939Z,7.42
2023-02-28T12:34:58.288Z,7.44
2023-02-28T12:35:10.192Z,7.48
2023-02-28T12:35:28.751Z,7.47
2023-02-28T12:35:44.484Z,7.50
2023-02-28T12:35:56.999Z,7.50
2023-02-28T12:36:10.146Z,7.50
2023-02-28T12:36:22.551Z,7.48
2023-02-28T12:36:34.826Z,7.50
2023-02-28T12:36:48.424Z,7.48
2023-02-28T12:37:02.201Z,7.50
2023-02-28T12:37:14.087Z,7.48
2023-02-28T12:37:27.046Z,7.50
2023-02-28T12:37:41.918Z,7.51
2023-02-28T12:38:23.075Z,0.00
2023-02-28T12:38:38.447Z,7.51
2023-02-28T12:38:52.365Z,7.52
2023-02-28T12:39:04.950Z,7.54
2023-02-28T12:39:18.846Z,7.55
2023-02-28T12:39:31.187Z,7.55
2023-02-28T12:39:50.145Z,7.55
2023-02-28T12:40:03.050Z,7.55
2023-02-28T12:40:14.665Z,7.54
2023-02-28T12:40:26.650Z,7.55
2023-02-28T12:40:47.030Z,7.55
2023-02-28T12:40:59.468Z,7.57
2023-02-28T12:41:16.666Z,7.57
2023-02-28T12:41:29.093Z,7.60
2023-02-28T12:41:41.093Z,7.63
2023-02-28T12:42:00.273Z,7.67
2023-02-28T12:42:19.031Z,7.71
2023-02-28T12:42:31.913Z,7.71
2023-02-28T12:42:43.888Z,7.74
2023-02-28T12:42:56.851Z,7.77
2023-02-28T12:43:08.518Z,7.79
2023-02-28T12:43:21.467Z,7.82
2023-02-28T12:43:47.096Z,7.82
2023-02-28T12:43:59.689Z,7.85
2023-02-28T12:44:50.994Z,0.00
2023-02-28T12:45:03.541Z,7.91
2023-02-28T12:45:16.269Z,7.92
2023-02-28T12:45:30.637Z,7.92
2023-02-28T12:45:44.538Z,7.92
2023-02-28T12:46:35.701Z,0.00
2023-02-28T12:46:48.104Z,8.00
2023-02-28T12:47:00.462Z,8.02
2023-02-28T12:47:17.836Z,8.02
2023-02-28T12:47:29.904Z,8.04
2023-02-28T12:47:44.385Z,8.04
2023-02-28T12:49:34.245Z,0.00
2023-02-28T12:49:47.197Z,8.18
2023-02-28T12:50:41.119Z,0.00
2023-02-28T12:50:53.717Z,8.25
2023-02-28T12:51:07.540Z,8.27
2023-02-28T12:51:20.492Z,8.28
2023-02-28T12:51:33.763Z,8.29
2023-02-28T12:51:45.790Z,8.28
2023-02-28T12:51:59.715Z,8.28
2023-02-28T12:52:12.300Z,8.29
2023-02-28T12:52:26.170Z,8.29
2023-02-28T12:52:39.221Z,8.28
2023-02-28T12:52:51.731Z,8.25
2023-02-28T12:53:07.861Z,8.24
2023-02-28T12:53:23.278Z,8.22
2023-02-28T12:53:36.239Z,8.22
2023-02-28T12:53:49.634Z,8.21
2023-02-28T12:54:02.678Z,8.18
2023-02-28T12:54:16.071Z,8.18
2023-02-28T12:54:28.784Z,8.17
2023-02-28T12:54:41.452Z,8.14
2023-02-28T12:55:39.444Z,0.00
2023-02-28T12:55:52.238Z,8.14
2023-02-28T12:56:07.354Z,8.14
2023-02-28T12:56:33.235Z,8.18
2023-02-28T12:56:49.059Z,8.21
2023-02-28T12:57:03.046Z,8.22
2023-02-28T12:57:15.464Z,8.25
2023-02-28T12:57:31.183Z,8.28
2023-02-28T12:57:44.225Z,8.28
2023-02-28T12:57:56.303Z,8.29
2023-02-28T12:58:09.097Z,8.29
2023-02-28T12:58:21.951Z,8.31
2023-02-28T12:58:34.255Z,8.29
2023-02-28T12:58:48.115Z,8.29
2023-02-28T12:59:21.207Z,0.00
2023-02-28T12:59:33.545Z,8.25
2023-02-28T12:59:45.409Z,8.22
2023-02-28T12:59:56.484Z,8.20
2023-02-28T13:00:08.564Z,8.20
2023-02-28T13:00:20.944Z,8.18
2023-02-28T13:00:33.842Z,8.17
2023-02-28T13:00:45.704Z,8.13
2023-02-28T13:00:57.600Z,8.13
2023-02-28T13:01:09.919Z,8.12
2023-02-28T13:01:20.874Z,8.10
2023-02-28T13:01:33.493Z,8.07
2023-02-28T13:01:46.143Z,8.06
2023-02-28T13:01:56.937Z,8.06
2023-02-28T13:02:08.885Z,8.04
2023-02-28T13:02:21.609Z,8.04
2023-02-28T13:03:02.386Z,0.00
2023-02-28T13:03:14.188Z,8.03
2023-02-28T13:03:24.921Z,8.03
2023-02-28T13:03:37.993Z,8.03
2023-02-28T13:03:52.793Z,8.03
2023-02-28T13:04:04.484Z,8.03
2023-02-28T13:04:16.780Z,8.04
2023-02-28T13:04:29.836Z,8.04
2023-02-28T13:04:41.561Z,8.03
2023-02-28T13:04:52.323Z,8.00
2023-02-28T13:05:03.339Z,8.00
2023-02-28T13:05:14.096Z,8.00
2023-02-28T13:05:24.841Z,8.00
2023-02-28T13:05:35.609Z,8.00
2023-02-28T13:05:46.394Z,8.00
2023-02-28T13:05:57.152Z,8.00
2023-02-28T13:06:07.946Z,7.99
2023-02-28T13:06:18.722Z,7.99
2023-02-28T13:06:29.482Z,7.96
2023-02-28T13:06:41.205Z,7.95
2023-02-28T13:06:52.008Z,7.95
2023-02-28T13:07:03.724Z,7.94
2023-02-28T13:07:15.444Z,7.94
2023-02-28T13:07:26.185Z,7.92
2023-02-28T13:07:37.186Z,7.91
2023-02-28T13:07:48.020Z,7.91
2023-02-28T13:07:58.785Z,7.91
2023-02-28T13:08:10.490Z,7.91
2023-02-28T13:08:21.278Z,7.91
2023-02-28T13:08:32.108Z,7.89
2023-02-28T13:08:43.852Z,7.89
2023-02-28T13:08:54.684Z,7.89
2023-02-28T13:09:05.442Z,7.86
2023-02-28T13:09:16.245Z,7.85
2023-02-28T13:09:27.953Z,7.86
2023-02-28T13:09:39.931Z,7.85
2023-02-28T13:09:50.690Z,7.85
2023-02-28T13:10:01.517Z,7.85
2023-02-28T13:10:13.218Z,7.86
2023-02-28T13:10:24.905Z,7.86
2023-02-28T13:10:36.579Z,7.86
2023-02-28T13:10:47.339Z,7.88
2023-02-28T13:11:00.101Z,7.88
2023-02-28T13:11:20.978Z,7.89
2023-02-28T13:11:26.782Z,7.89
2023-02-28T13:11:37.973Z,7.89
2023-02-28T13:11:49.829Z,7.89
2023-02-28T13:12:01.526Z,7.91
2023-02-28T13:12:12.268Z,7.92
2023-02-28T13:12:23.012Z,7.92
2023-02-28T13:12:33.774Z,7.95
2023-02-28T13:12:45.479Z,7.96
2023-02-28T13:12:56.247Z,7.99
2023-02-28T13:13:07.304Z,8.02
2023-02-28T13:13:18.963Z,8.04
2023-02-28T13:13:31.121Z,8.06
2023-02-28T13:13:42.676Z,8.10
2023-02-28T13:13:53.412Z,8.12
2023-02-28T13:14:04.947Z,8.17
2023-02-28T13:14:40.477Z,0.00
2023-02-28T13:14:52.139Z,8.36
2023-02-28T13:15:03.848Z,8.45
2023-02-28T13:15:14.598Z,8.50
2023-02-28T13:15:25.390Z,8.57
2023-02-28T13:15:36.132Z,8.64
2023-02-28T13:15:46.884Z,8.70
2023-02-28T13:15:57.656Z,8.79
2023-02-28T13:16:08.397Z,8.89
2023-02-28T13:16:19.165Z,8.97
2023-02-28T13:16:30.875Z,9.08
2023-02-28T13:16:41.644Z,9.20
2023-02-28T13:16:53.437Z,9.30
2023-02-28T13:17:04.216Z,9.40
2023-02-28T13:17:15.904Z,9.48
2023-02-28T13:17:26.706Z,9.53
2023-02-28T13:17:37.449Z,9.59
2023-02-28T13:17:48.192Z,9.65
2023-02-28T13:17:59.345Z,9.71
2023-02-28T13:18:10.130Z,9.80
2023-02-28T13:18:20.886Z,9.86
2023-02-28T13:18:31.628Z,9.95
2023-02-28T13:18:42.382Z,10.04
2023-02-28T13:18:53.119Z,10.11
2023-02-28T13:19:03.995Z,10.14
2023-02-28T13:19:14.761Z,10.20
2023-02-28T13:19:27.010Z,10.29
2023-02-28T13:19:39.754Z,10.49
2023-02-28T13:19:52.269Z,10.69
2023-02-28T13:20:03.500Z,10.83
2023-02-28T13:20:15.857Z,10.93
2023-02-28T13:20:30.122Z,11.05
2023-02-28T13:20:42.793Z,11.12
2023-02-28T13:21:21.388Z,0.00
2023-02-28T13:21:33.963Z,11.42
2023-02-28T13:21:49.432Z,11.49
2023-02-28T13:22:00.649Z,11.53
2023-02-28T13:22:12.731Z,11.57
2023-02-28T13:22:25.289Z,11.66
2023-02-28T13:22:37.611Z,11.67
2023-02-28T13:22:49.950Z,11.75
2023-02-28T13:23:02.458Z,11.84
2023-02-28T13:23:15.711Z,11.98
2023-02-28T13:23:28.980Z,12.05
2023-02-28T13:23:41.324Z,12.13
2023-02-28T13:23:55.161Z,12.18
2023-02-28T13:24:07.902Z,12.25
2023-02-28T13:24:21.140Z,12.29
2023-02-28T13:25:01.553Z,0.00
2023-02-28T13:25:14.130Z,12.33
2023-02-28T13:25:26.679Z,12.34
2023-02-28T13:25:39.440Z,12.37
2023-02-28T13:25:51.305Z,12.44
2023-02-28T13:26:04.730Z,12.54
2023-02-28T13:26:18.531Z,12.59
2023-02-28T13:26:32.390Z,12.58
2023-02-28T13:26:45.002Z,12.55
2023-02-28T13:26:57.831Z,12.55
2023-02-28T13:27:10.746Z,12.55
2023-02-28T13:27:23.370Z,12.54
2023-02-28T13:27:35.905Z,12.55
2023-02-28T13:27:48.244Z,12.63
2023-02-28T13:28:00.501Z,12.69
2023-02-28T13:28:14.262Z,12.70
2023-02-28T13:28:26.143Z,12.76
2023-02-28T13:28:39.767Z,12.76
2023-02-28T13:28:50.619Z,12.77
2023-02-28T13:29:02.458Z,12.81
2023-02-28T13:29:15.040Z,12.85
2023-02-28T13:29:27.069Z,12.87
2023-02-28T13:29:38.184Z,12.87
2023-02-28T13:29:50.478Z,12.89
2023-02-28T13:30:04.072Z,12.89
2023-02-28T13:30:16.689Z,12.91
2023-02-28T13:30:29.775Z,12.88
2023-02-28T13:30:42.129Z,12.91
2023-02-28T13:30:54.655Z,12.92
2023-02-28T13:31:07.188Z,12.92
2023-02-28T13:31:19.968Z,12.92
2023-02-28T13:31:32.593Z,12.94
2023-02-28T13:31:45.523Z,12.98
2023-02-28T13:31:59.359Z,12.98
2023-02-28T13:32:12.777Z,13.01
2023-02-28T13:32:26.022Z,13.03
2023-02-28T13:32:39.555Z,13.01
2023-02-28T13:32:51.412Z,13.01
2023-02-28T13:33:03.253Z,13.03
2023-02-28T13:33:15.012Z,13.01
2023-02-28T13:33:27.558Z,13.03
2023-02-28T13:33:39.323Z,13.06
2023-02-28T13:33:51.758Z,13.09
2023-02-28T13:34:02.704Z,13.10
2023-02-28T13:34:15.272Z,13.16
2023-02-28T13:34:26.213Z,13.16
2023-02-28T13:34:38.867Z,13.16
2023-02-28T13:34:51.465Z,13.16
2023-02-28T13:35:03.714Z,13.16
2023-02-28T13:35:16.455Z,13.25
2023-02-28T13:35:28.601Z,13.28
2023-02-28T13:35:41.406Z,13.29
2023-02-28T13:35:54.727Z,13.28
2023-02-28T13:36:06.572Z,13.29
2023-02-28T13:36:18.485Z,13.31
2023-02-28T13:36:30.797Z,13.38
2023-02-28T13:36:44.640Z,13.36
2023-02-28T13:36:57.946Z,13.35
2023-02-28T13:37:10.508Z,13.32
2023-02-28T13:37:23.111Z,13.32
2023-02-28T13:37:35.425Z,13.32
2023-02-28T13:37:48.714Z,13.43
2023-02-28T13:38:01.515Z,13.50
2023-02-28T13:38:14.846Z,13.48
2023-02-28T13:38:29.215Z,13.47
2023-02-28T13:38:42.057Z,13.47
2023-02-28T13:38:56.350Z,13.53
2023-02-28T13:39:09.113Z,13.53
2023-02-28T13:39:21.025Z,13.51
2023-02-28T13:39:35.940Z,13.53
2023-02-28T13:39:48.815Z,13.51
2023-02-28T13:39:59.708Z,13.50
2023-02-28T13:40:12.696Z,13.44
2023-02-28T13:40:24.514Z,13.36
2023-02-28T13:40:37.097Z,13.39
2023-02-28T13:40:52.131Z,13.41
2023-02-28T13:41:06.020Z,13.41
2023-02-28T13:41:19.330Z,13.47
2023-02-28T13:41:32.026Z,13.54
2023-02-28T13:41:44.261Z,13.55
2023-02-28T13:41:57.966Z,13.55
2023-02-28T13:42:10.731Z,13.55
2023-02-28T13:42:22.983Z,13.61
2023-02-28T13:42:33.758Z,13.61
2023-02-28T13:42:46.572Z,13.59
2023-02-28T13:42:59.810Z,13.57
2023-02-28T13:43:41.768Z,0.00
2023-02-28T13:43:53.262Z,13.62
2023-02-28T13:44:05.310Z,13.69
2023-02-28T13:44:17.382Z,13.71
2023-02-28T13:44:29.206Z,13.69
2023-02-28T13:44:42.596Z,13.69
2023-02-28T13:44:55.235Z,13.66
2023-02-28T13:45:07.536Z,13.61
2023-02-28T13:45:19.903Z,13.57
2023-02-28T13:45:30.777Z,13.53
2023-02-28T13:45:41.610Z,13.51
2023-02-28T13:45:54.148Z,13.46
2023-02-28T13:46:06.484Z,13.39
2023-02-28T13:46:18.755Z,13.29
2023-02-28T13:46:31.713Z,13.12
2023-02-28T13:46:43.820Z,13.01
2023-02-28T13:46:56.155Z,12.88
2023-02-28T13:47:08.740Z,12.74
2023-02-28T13:47:23.314Z,12.62
2023-02-28T13:47:35.129Z,12.49
2023-02-28T13:47:47.446Z,12.38
2023-02-28T13:47:58.453Z,12.26
2023-02-28T13:48:10.243Z,12.15
2023-02-28T13:48:23.494Z,12.03
2023-02-28T13:48:36.085Z,11.84
2023-02-28T13:48:49.402Z,11.66
2023-02-28T13:49:03.174Z,11.48
2023-02-28T13:49:15.699Z,11.31
2023-02-28T13:49:29.367Z,11.19
2023-02-28T13:49:41.924Z,11.03
2023-02-28T13:49:54.703Z,10.90
2023-02-28T13:50:07.897Z,10.76
2023-02-28T13:50:19.973Z,10.68
2023-02-28T13:50:33.225Z,10.55
2023-02-28T13:50:46.498Z,10.43
2023-02-28T13:51:00.138Z,10.28
2023-02-28T13:51:13.904Z,10.17
2023-02-28T13:51:26.920Z,10.07
2023-02-28T13:52:18.208Z,0.00
2023-02-28T13:52:30.511Z,9.91
2023-02-28T13:52:48.516Z,9.91
2023-02-28T13:53:00.463Z,9.96
2023-02-28T13:53:13.805Z,9.99
2023-02-28T13:53:26.174Z,10.10
2023-02-28T13:53:38.472Z,10.17
2023-02-28T13:53:51.426Z,10.25
2023-02-28T13:54:04.025Z,10.32
2023-02-28T13:54:16.842Z,10.44
2023-02-28T13:54:31.146Z,10.55
2023-02-28T13:54:43.985Z,10.62
2023-02-28T13:54:54.904Z,10.68
2023-02-28T13:55:07.565Z,10.72
2023-02-28T13:55:18.494Z,10.80
2023-02-28T13:55:29.404Z,10.87
2023-02-28T13:55:42.053Z,10.91
2023-02-28T13:55:55.320Z,10.95
2023-02-28T13:56:07.135Z,10.98
2023-02-28T13:56:21.398Z,11.02
2023-02-28T13:56:34.245Z,11.05
2023-02-28T13:56:47.312Z,11.11
2023-02-28T13:56:59.104Z,11.21
2023-02-28T13:57:12.405Z,11.26
2023-02-28T13:57:26.067Z,11.26
2023-02-28T13:57:37.869Z,11.28
2023-02-28T13:57:50.414Z,11.38
2023-02-28T13:58:01.278Z,11.42
2023-02-28T13:58:13.288Z,11.45
2023-02-28T13:58:24.182Z,11.49
2023-02-28T13:58:35.091Z,11.56
2023-02-28T13:58:48.932Z,11.64
2023-02-28T13:59:00.865Z,11.77
2023-02-28T13:59:13.342Z,11.81
2023-02-28T13:59:25.665Z,11.84
2023-02-28T13:59:41.527Z,11.90
2023-02-28T13:59:53.369Z,11.96
2023-02-28T14:00:05.271Z,12.03
2023-02-28T14:00:17.887Z,12.11
2023-02-28T14:00:29.867Z,12.21
2023-02-28T14:00:42.135Z,12.26
2023-02-28T14:00:56.945Z,12.29
2023-02-28T14:01:12.212Z,12.34
2023-02-28T14:01:25.584Z,12.36
2023-02-28T14:01:40.935Z,12.34
2023-02-28T14:01:54.469Z,12.38
2023-02-28T14:02:06.833Z,12.40
2023-02-28T14:02:18.696Z,12.38
2023-02-28T14:02:32.083Z,12.40
2023-02-28T14:02:44.702Z,12.44
2023-02-28T14:02:56.605Z,12.48
2023-02-28T14:03:08.485Z,12.49
2023-02-28T14:03:21.306Z,12.46
2023-02-28T14:03:33.155Z,12.46
2023-02-28T14:03:47.312Z,12.44
2023-02-28T14:03:59.125Z,12.40
2023-02-28T14:04:11.179Z,12.40
2023-02-28T14:04:23.060Z,12.49
2023-02-28T14:04:33.999Z,12.52
2023-02-28T14:04:46.275Z,12.54
2023-02-28T14:04:59.292Z,12.55
2023-02-28T14:05:12.068Z,12.58
2023-02-28T14:05:25.918Z,12.59
2023-02-28T14:05:37.954Z,12.71
2023-02-28T14:05:50.133Z,12.80
2023-02-28T14:06:01.981Z,12.87
2023-02-28T14:06:13.838Z,12.89
2023-02-28T14:06:25.648Z,12.89
2023-02-28T14:07:00.465Z,0.00
2023-02-28T14:07:15.308Z,13.17
2023-02-28T14:07:27.095Z,13.22
2023-02-28T14:07:40.904Z,13.27
2023-02-28T14:07:53.704Z,13.32
2023-02-28T14:08:05.476Z,13.38
2023-02-28T14:08:17.261Z,13.44
2023-02-28T14:08:30.318Z,13.43
2023-02-28T14:08:42.077Z,13.47
2023-02-28T14:08:53.389Z,13.53
2023-02-28T14:09:05.177Z,13.54
2023-02-28T14:09:17.775Z,13.57
2023-02-28T14:09:30.245Z,13.57
2023-02-28T14:09:41.118Z,13.59
2023-02-28T14:09:53.864Z,13.61
2023-02-28T14:10:04.745Z,13.62
2023-02-28T14:10:15.586Z,13.61
2023-02-28T14:10:27.406Z,13.53
2023-02-28T14:10:39.913Z,13.48
2023-02-28T14:10:52.068Z,13.44
2023-02-28T14:11:05.127Z,13.41
2023-02-28T14:11:15.936Z,13.38
2023-02-28T14:11:26.790Z,13.32
2023-02-28T14:11:37.644Z,13.27
2023-02-28T14:11:49.920Z,13.24
2023-02-28T14:12:00.716Z,13.25
2023-02-28T14:12:11.547Z,13.25
2023-02-28T14:12:22.360Z,13.24
2023-02-28T14:12:35.378Z,13.22
2023-02-28T14:12:47.922Z,13.22
2023-02-28T14:13:00.123Z,13.25
2023-02-28T14:13:11.857Z,13.25
2023-02-28T14:13:22.783Z,13.24
2023-02-28T14:13:33.569Z,13.24
2023-02-28T14:13:44.379Z,13.21
2023-02-28T14:13:55.193Z,13.17
2023-02-28T14:14:05.957Z,13.21
2023-02-28T14:14:17.700Z,13.21
2023-02-28T14:14:28.487Z,13.17
2023-02-28T14:14:39.246Z,13.16
2023-02-28T14:14:51.015Z,13.14
2023-02-28T14:15:03.470Z,13.14
2023-02-28T14:15:15.236Z,13.14
2023-02-28T14:15:26.062Z,13.14
2023-02-28T14:15:36.890Z,13.24
2023-02-28T14:15:49.400Z,13.27
2023-02-28T14:16:02.047Z,13.25
2023-02-28T14:16:12.915Z,13.28
2023-02-28T14:16:23.842Z,13.28
2023-02-28T14:16:36.337Z,13.29
2023-02-28T14:16:48.156Z,13.25
2023-02-28T14:16:58.966Z,13.25
2023-02-28T14:17:11.237Z,13.27
2023-02-28T14:17:22.053Z,13.28
2023-02-28T14:17:33.819Z,13.28
2023-02-28T14:17:45.684Z,13.24
2023-02-28T14:17:59.406Z,13.22
2023-02-28T14:18:11.885Z,13.21
2023-02-28T14:18:24.265Z,13.19
2023-02-28T14:18:37.935Z,13.19
2023-02-28T14:18:51.183Z,13.14
2023-02-28T14:19:04.409Z,13.10
2023-02-28T14:19:15.216Z,13.07
2023-02-28T14:19:29.436Z,13.06
2023-02-28T14:19:43.149Z,13.01
2023-02-28T14:19:54.954Z,12.99
2023-02-28T14:20:05.763Z,13.01
2023-02-28T14:20:18.318Z,13.06
2023-02-28T14:20:31.570Z,13.07
2023-02-28T14:20:42.340Z,13.09
2023-02-28T14:20:54.612Z,13.12
2023-02-28T14:21:08.378Z,13.14
2023-02-28T14:21:20.841Z,13.07
2023-02-28T14:21:34.608Z,13.01
2023-02-28T14:21:45.584Z,13.01
2023-02-28T14:21:56.364Z,12.96
2023-02-28T14:22:08.620Z,12.96
2023-02-28T14:22:20.875Z,12.88
2023-02-28T14:22:32.690Z,12.77
2023-02-28T14:22:45.631Z,12.71
2023-02-28T14:22:57.526Z,12.67
2023-02-28T14:23:09.317Z,12.66
2023-02-28T14:23:21.844Z,12.66
2023-02-28T14:23:32.739Z,12.63
2023-02-28T14:23:47.035Z,12.67
2023-02-28T14:23:58.841Z,12.77
2023-02-28T14:24:09.641Z,12.77
2023-02-28T14:24:20.487Z,12.76
2023-02-28T14:24:32.270Z,12.77
2023-02-28T14:24:43.072Z,12.77
2023-02-28T14:24:55.531Z,12.77
2023-02-28T14:25:06.320Z,12.76
2023-02-28T14:25:19.559Z,12.74
2023-02-28T14:25:31.424Z,12.67
2023-02-28T14:25:43.671Z,12.62
2023-02-28T14:25:55.468Z,12.59
2023-02-28T14:26:07.747Z,12.55
2023-02-28T14:26:20.027Z,12.51
2023-02-28T14:26:31.885Z,12.51
2023-02-28T14:26:43.652Z,12.48
2023-02-28T14:26:54.490Z,12.48
2023-02-28T14:27:05.290Z,12.51
2023-02-28T14:27:17.132Z,12.52
2023-02-28T14:27:27.952Z,12.52
2023-02-28T14:27:38.830Z,12.52
2023-02-28T14:27:49.702Z,12.52
2023-02-28T14:28:00.565Z,12.56
2023-02-28T14:28:11.492Z,12.59
2023-02-28T14:28:24.012Z,12.59
2023-02-28T14:28:34.853Z,12.61
2023-02-28T14:28:45.735Z,12.62
2023-02-28T14:28:56.630Z,12.63
2023-02-28T14:29:08.492Z,12.67
2023-02-28T14:29:19.332Z,12.69
2023-02-28T14:29:30.204Z,12.71
2023-02-28T14:29:41.103Z,12.73
2023-02-28T14:29:52.947Z,12.73
2023-02-28T14:30:04.703Z,12.76
2023-02-28T14:30:16.504Z,12.80
2023-02-28T14:30:28.283Z,12.85
2023-02-28T14:30:39.119Z,12.85
2023-02-28T14:30:51.499Z,12.81
2023-02-28T14:31:03.969Z,12.81
2023-02-28T14:31:16.571Z,12.88
2023-02-28T14:31:28.502Z,12.95
2023-02-28T14:31:41.731Z,12.99
2023-02-28T14:31:54.297Z,13.04
2023-02-28T14:32:05.197Z,13.07
2023-02-28T14:32:16.051Z,13.10
2023-02-28T14:32:28.073Z,13.10
2023-02-28T14:32:39.887Z,13.13
2023-02-28T14:32:51.635Z,13.14
2023-02-28T14:33:04.141Z,13.13
2023-02-28T14:33:14.955Z,13.12
2023-02-28T14:33:26.733Z,13.10
2023-02-28T14:33:37.504Z,13.13
2023-02-28T14:33:49.764Z,13.13
2023-02-28T14:34:02.051Z,13.13
2023-02-28T14:34:13.895Z,13.07
2023-02-28T14:34:26.374Z,12.99
2023-02-28T14:34:39.559Z,12.94
2023-02-28T14:34:50.328Z,12.84
2023-02-28T14:35:01.209Z,12.77
2023-02-28T14:35:14.184Z,12.71
2023-02-28T14:35:25.055Z,12.63
2023-02-28T14:35:35.899Z,12.55
2023-02-28T14:35:46.821Z,12.49
2023-02-28T14:35:57.626Z,12.41
2023-02-28T14:36:10.673Z,12.40
2023-02-28T14:36:22.522Z,12.41
2023-02-28T14:36:34.286Z,12.46
2023-02-28T14:36:45.097Z,12.49
2023-02-28T14:36:57.587Z,12.52
2023-02-28T14:37:08.395Z,12.54
2023-02-28T14:37:19.190Z,12.59
2023-02-28T14:37:31.192Z,12.62
2023-02-28T14:37:43.033Z,12.66
2023-02-28T14:37:55.470Z,12.67
2023-02-28T14:38:07.280Z,12.71
2023-02-28T14:38:19.068Z,12.74
2023-02-28T14:38:32.300Z,12.79
2023-02-28T14:38:44.085Z,12.87
2023-02-28T14:38:57.302Z,12.92
2023-02-28T14:39:09.616Z,12.94
2023-02-28T14:39:20.416Z,12.92
2023-02-28T14:39:34.146Z,12.92
2023-02-28T14:39:48.418Z,12.92
2023-02-28T14:39:59.237Z,12.87
2023-02-28T14:40:11.730Z,12.84
2023-02-28T14:40:23.499Z,12.85
2023-02-28T14:40:34.276Z,12.87
2023-02-28T14:40:47.277Z,12.87
2023-02-28T14:40:58.138Z,12.85
2023-02-28T14:41:12.249Z,12.89
2023-02-28T14:41:24.517Z,12.91
2023-02-28T14:41:37.525Z,12.94
2023-02-28T14:41:50.760Z,12.94
2023-02-28T14:42:01.607Z,12.89
2023-02-28T14:42:13.850Z,12.91
2023-02-28T14:42:24.622Z,12.95
2023-02-28T14:42:37.131Z,12.98
2023-02-28T14:42:47.948Z,12.99
2023-02-28T14:43:00.394Z,13.04
2023-02-28T14:43:13.080Z,13.12
2023-02-28T14:43:25.661Z,13.16
2023-02-28T14:43:38.644Z,13.16
2023-02-28T14:43:50.880Z,13.17
2023-02-28T14:44:03.850Z,13.17
2023-02-28T14:44:15.588Z,13.17
2023-02-28T14:44:26.414Z,13.21
2023-02-28T14:44:37.402Z,13.19
2023-02-28T14:44:48.188Z,13.17
2023-02-28T14:45:00.751Z,13.14
2023-02-28T14:45:11.518Z,13.13
2023-02-28T14:45:23.760Z,13.14
2023-02-28T14:45:34.529Z,13.13
2023-02-28T14:45:47.281Z,13.10
2023-02-28T14:46:00.468Z,13.10
2023-02-28T14:46:12.735Z,13.07
2023-02-28T14:46:25.249Z,13.07
2023-02-28T14:46:38.526Z,13.07
2023-02-28T14:46:50.804Z,13.03
2023-02-28T14:47:03.338Z,12.98
2023-02-28T14:47:15.789Z,12.95
2023-02-28T14:47:27.588Z,12.92
2023-02-28T14:47:39.570Z,12.91
2023-02-28T14:47:51.289Z,12.89
2023-02-28T14:48:02.062Z,12.85
2023-02-28T14:48:39.742Z,0.00
2023-02-28T14:48:51.494Z,12.87
2023-02-28T14:49:03.284Z,12.84
2023-02-28T14:49:14.064Z,12.84
2023-02-28T14:49:24.916Z,12.80
2023-02-28T14:49:35.724Z,12.79
2023-02-28T14:49:47.444Z,12.79
2023-02-28T14:49:59.237Z,12.77
2023-02-28T14:50:10.084Z,12.74
2023-02-28T14:50:21.837Z,12.77
2023-02-28T14:50:34.280Z,12.84
2023-02-28T14:50:45.165Z,12.92
2023-02-28T14:50:55.990Z,12.96
2023-02-28T14:51:06.758Z,13.03
2023-02-28T14:51:18.996Z,13.04
2023-02-28T14:51:30.805Z,13.06
2023-02-28T14:51:41.669Z,13.06
2023-02-28T14:51:52.428Z,13.07
2023-02-28T14:52:03.245Z,13.09
2023-02-28T14:52:14.028Z,13.07
2023-02-28T14:52:26.245Z,13.07
2023-02-28T14:52:38.036Z,13.09
2023-02-28T14:52:50.507Z,13.13
2023-02-28T14:53:01.326Z,13.17
2023-02-28T14:53:13.804Z,13.22
2023-02-28T14:53:25.804Z,13.25
2023-02-28T14:53:36.795Z,13.27
2023-02-28T14:53:47.654Z,13.28
2023-02-28T14:53:58.437Z,13.28
2023-02-28T14:54:10.961Z,13.31
2023-02-28T14:54:23.468Z,13.38
2023-02-28T14:54:35.224Z,13.44
2023-02-28T14:54:46.977Z,13.50
2023-02-28T14:54:59.198Z,13.51
2023-02-28T14:55:11.691Z,13.53
2023-02-28T14:55:22.806Z,13.50
2023-02-28T14:55:34.590Z,13.51
2023-02-28T14:55:47.171Z,13.51
2023-02-28T14:55:58.012Z,13.53
2023-02-28T14:56:08.819Z,13.54
2023-02-28T14:56:22.090Z,13.54